K.pluto — 3EYQ3 — position and weather

sailwx.info

Track history (hours):
 
Tides and Currents Weather Stations Pressure Air Temp Water Temp Dewpoint Dewpoint Depression Visibility Wind Speed Wind Dir Waves Ship Positions

K.pluto

Last reported at 2015-Mar-29 17:07 UTC. Time now 2015-Apr-28 02:08 UTC.
Position N 16°30' W 019°00'.
Warning: this ship's position is 29 days out of date.

Length 170 m; draft 8.3 m.

Type: Cargo ship. MMSI: 373504000.

Date/timePositionNaut miles runAvg speedWind from/ knotsBaromVisibWave heightAir tempDewpointWater temp
2015-Mar-29 17:07N 16°30' W 019°00'1112.3
2015-Mar-29 16:13N 16°41' W 019°00'5712.4
2015-Mar-29 11:33N 17°39' W 019°00'1812.2
2015-Mar-29 10:07N 17°56' W 018°60'712.2
2015-Mar-29 09:34N 18°03' W 018°60'1212.2
2015-Mar-29 08:33N 18°15' W 019°00'1212.3
2015-Mar-29 07:34N 18°28' W 018°60'  
2015-Mar-27 03:16N 27°48' W 013°46'4911.7
2015-Mar-26 23:04N 28°27' W 013°12'1211.5
2015-Mar-26 22:03N 28°37' W 013°05'  
2015-Mar-24 12:29N 36°08' W 005°22'0 0.1
2015-Mar-24 11:20N 36°08' W 005°22'0 0.1
2015-Mar-24 10:29N 36°08' W 005°22'0 0.0
2015-Mar-24 09:23N 36°08' W 005°22'0 0.1
2015-Mar-24 08:32N 36°08' W 005°22'3 3.4
2015-Mar-24 07:33N 36°05' W 005°19'7 7.3
2015-Mar-24 06:33N 36°05' W 005°10'1 0.6
2015-Mar-24 05:11N 36°05' W 005°10'1 1.1
2015-Mar-24 04:33N 36°06' W 005°10'  
Track history (hours):
 
Tides and Currents Weather Stations Pressure Air Temp Water Temp Dewpoint Dewpoint Depression Visibility Wind Speed Wind Dir Waves Ship Positions

K.pluto

Last reported at 2015-Mar-29 17:07 UTC. Time now 2015-Apr-28 02:08 UTC.
Position N 16°30' W 019°00'.
Warning: this ship's position is 29 days out of date.

Length 170 m; draft 8.3 m.

Type: Cargo ship. MMSI: 373504000.

Date/timePositionNaut miles runAvg speedWind from/ knotsBaromVisibWave heightAir tempDewpointWater temp
2015-Mar-29 17:07N 16°30' W 019°00'1112.3
2015-Mar-29 16:13N 16°41' W 019°00'5712.4
2015-Mar-29 11:33N 17°39' W 019°00'1812.2
2015-Mar-29 10:07N 17°56' W 018°60'712.2
2015-Mar-29 09:34N 18°03' W 018°60'1212.2
2015-Mar-29 08:33N 18°15' W 019°00'1212.3
2015-Mar-29 07:34N 18°28' W 018°60'  
2015-Mar-27 03:16N 27°48' W 013°46'4911.7
2015-Mar-26 23:04N 28°27' W 013°12'1211.5
2015-Mar-26 22:03N 28°37' W 013°05'  
2015-Mar-24 12:29N 36°08' W 005°22'0 0.1
2015-Mar-24 11:20N 36°08' W 005°22'0 0.1
2015-Mar-24 10:29N 36°08' W 005°22'0 0.0
2015-Mar-24 09:23N 36°08' W 005°22'0 0.1
2015-Mar-24 08:32N 36°08' W 005°22'3 3.4
2015-Mar-24 07:33N 36°05' W 005°19'7 7.3
2015-Mar-24 06:33N 36°05' W 005°10'1 0.6
2015-Mar-24 05:11N 36°05' W 005°10'1 1.1
2015-Mar-24 04:33N 36°06' W 005°10'  

Dump ship's entire track history